Data for 02/09/2014

Time Sea-Level Adjusted Pressure Absolute Pressure Temperature Relative Humidity Dew Point   
(mb) (inHg) (mb) (inHg) (C) (F) (%) (C) (F)
00:05 1017 30.03 846 24.98 -15.7 3.7 83 -18 -0.4
00:10 1017 30.03 846 24.98 -15.6 3.9 82 -18.1 -0.6
00:15 1017 30.03 846 24.98 -15.6 3.9 82 -18 -0.4
00:20 1017 30.03 846 24.98 -15.6 4 82 -18 -0.4
00:25 1017 30.03 846 24.98 -15.6 4 78 -18.6 -1.4
00:30 1017 30.03 846 24.98 -15.8 3.6 77 -19 -2.2
00:35 1017 30.03 846 24.98 -16 3.2 76 -19.3 -2.7
00:40 1017 30.03 846 24.98 -16.1 3 76 -19.4 -2.9
00:45 1017 30.03 846 24.98 -16.2 2.8 77 -19.4 -3
00:50 1017 30.03 846 24.98 -16.2 2.8 77 -19.4 -3
00:55 1017 30.03 846 24.98 -16.3 2.7 76 -19.6 -3.3
01:00 1017 30.03 846 24.98 -16.4 2.5 77 -19.5 -3.2
01:05 1016 30 846 24.98 -16.4 2.4 77 -19.6 -3.4
01:10 1016 30 845 24.95 -16.5 2.3 76 -19.8 -3.6
01:15 1016 30 845 24.95 -16.5 2.2 75 -20 -4
01:20 1016 30 845 24.95 -16.5 2.2 73 -20.3 -4.6
01:25 1016 30 845 24.95 -16.6 2.2 73 -20.4 -4.7
01:30 1016 30 845 24.95 -16.6 2.1 72 -20.5 -5
01:35 1016 30 845 24.95 -16.6 2 72 -20.6 -5.1
01:40 1016 30 845 24.95 -16.6 2.1 72 -20.5 -4.9
01:45 1016 30 845 24.95 -16.6 2.2 72 -20.5 -5
01:50 1016 30 845 24.95 -16.5 2.3 73 -20.3 -4.6
01:55 1016 30 845 24.95 -16.5 2.3 73 -20.3 -4.6
02:00 1016 30 845 24.95 -16.5 2.3 72 -20.4 -4.7
02:05 1016 30 845 24.95 -16.5 2.3 72 -20.5 -4.9
02:10 1016 30 845 24.95 -16.5 2.3 71 -20.6 -5.1
02:15 1016 30 845 24.95 -16.4 2.5 70 -20.6 -5.1
02:20 1016 30 845 24.95 -16.4 2.5 69 -20.8 -5.5
02:25 1016 30 845 24.95 -16.4 2.5 69 -20.8 -5.5
02:30 1016 30 845 24.95 -16.5 2.4 71 -20.6 -5.1
02:35 1015 29.97 845 24.95 -16.5 2.2 71 -20.6 -5
02:40 1015 29.97 845 24.95 -16.6 2 72 -20.5 -5
02:45 1015 29.97 845 24.95 -16.7 1.9 74 -20.3 -4.5
02:50 1015 29.97 845 24.95 -16.7 1.9 75 -20.2 -4.3
02:55 1016 30 845 24.95 -16.7 1.9 75 -20.2 -4.3
03:00 1016 30 845 24.95 -16.8 1.8 75 -20.2 -4.3
03:05 1015 29.97 845 24.95 -16.9 1.7 75 -20.3 -4.5
03:10 1015 29.97 844 24.92 -16.9 1.7 76 -20.2 -4.4
03:15 1015 29.97 844 24.92 -16.9 1.5 76 -20.1 -4.3
03:20 1015 29.97 844 24.92 -17 1.5 78 -20 -4
03:25 1015 29.97 844 24.92 -17 1.4 79 -19.9 -3.8
03:30 1015 29.97 844 24.92 -17 1.4 78 -19.9 -3.9
03:35 1015 29.97 844 24.92 -17.1 1.3 78 -20 -4
03:40 1015 29.97 844 24.92 -17.1 1.2 77 -20.2 -4.4
03:45 1015 29.97 844 24.92 -17 1.3 74 -20.6 -5
03:50 1015 29.97 844 24.92 -17 1.4 75 -20.5 -4.9
03:55 1015 29.97 844 24.92 -16.9 1.5 76 -20.2 -4.4
04:00 1015 29.97 844 24.92 -16.9 1.5 77 -20.1 -4.2
04:05 1015 29.97 844 24.92 -16.9 1.7 75 -20.3 -4.6
04:10 1015 29.97 844 24.92 -16.9 1.6 75 -20.4 -4.7
04:15 1014 29.94 843 24.89 -17 1.4 74 -20.6 -5.1
04:20 1014 29.94 843 24.89 -17 1.3 73 -20.8 -5.4
04:25 1014 29.94 843 24.89 -17.1 1.3 72 -21 -5.8
04:30 1014 29.94 843 24.89 -17.1 1.2 71 -21.1 -6
04:35 1014 29.94 843 24.89 -17.1 1.2 72 -21 -5.9
04:40 1014 29.94 843 24.89 -17.2 1.1 71 -21.2 -6.2
04:45 1014 29.94 843 24.89 -17.1 1.3 71 -21.2 -6.1
04:50 1014 29.94 843 24.89 -17.1 1.2 70 -21.3 -6.4
04:55 1014 29.94 843 24.89 -17.2 1.1 72 -21.2 -6.1
05:00 1014 29.94 843 24.89 -17.2 1.1 71 -21.3 -6.4
05:05 1013 29.91 843 24.89 -17.2 1 71 -21.4 -6.4
05:10 1014 29.94 843 24.89 -17.2 1 71 -21.4 -6.5
05:15 1014 29.94 843 24.89 -17.2 1 71 -21.3 -6.4
05:20 1014 29.94 843 24.89 -17.3 1 73 -21.1 -5.9
05:25 1014 29.94 843 24.89 -17.3 0.8 69 -21.6 -7
05:30 1013 29.91 842 24.86 -17.2 1 69 -21.6 -6.9
05:35 1013 29.91 842 24.86 -17.2 1 69 -21.6 -6.9
05:40 1014 29.94 843 24.89 -17.2 1.1 71 -21.3 -6.3
05:45 1014 29.94 843 24.89 -17.2 1 73 -21.1 -5.9
05:50 1014 29.94 843 24.89 -17.2 1 70 -21.5 -6.7
05:55 1014 29.94 843 24.89 -17.2 1 70 -21.4 -6.5
06:00 1014 29.94 844 24.92 -17.3 0.8 75 -20.8 -5.4
06:05 1015 29.97 844 24.92 -17.4 0.8 77 -20.5 -5
06:10 1014 29.94 844 24.92 -17.4 0.7 82 -19.8 -3.6
06:15 1015 29.97 844 24.92 -17.2 1 83 -19.5 -3.2
06:20 1015 29.97 844 24.92 -17.2 1 83 -19.5 -3.1
06:25 1015 29.97 844 24.92 -17.3 0.9 81 -19.9 -3.7
06:30 1015 29.97 844 24.92 -17.5 0.6 78 -20.4 -4.7
06:35 1015 29.97 844 24.92 -17.6 0.3 79 -20.5 -4.9
06:40 1015 29.97 845 24.95 -17.7 0.2 79 -20.5 -4.8
06:45 1016 30 845 24.95 -17.7 0.2 79 -20.5 -4.8
06:50 1016 30 845 24.95 -17.7 0.1 80 -20.4 -4.8
06:55 1016 30 845 24.95 -17.8 0 81 -20.3 -4.6
07:00 1016 30 845 24.95 -17.8 -0.1 81 -20.4 -4.7
07:05 1016 30 845 24.95 -17.9 -0.1 81 -20.4 -4.6
07:10 1016 30 845 24.95 -17.9 -0.2 79 -20.6 -5.2
07:15 1016 30 845 24.95 -18 -0.3 80 -20.6 -5
07:20 1015 29.97 845 24.95 -18 -0.3 81 -20.5 -4.9
07:25 1015 29.97 845 24.95 -18 -0.4 81 -20.5 -4.9
07:30 1015 29.97 844 24.92 -18 -0.4 81 -20.5 -4.9
07:35 1015 29.97 844 24.92 -18 -0.4 81 -20.5 -5
07:40 1015 29.97 844 24.92 -17.9 -0.3 81 -20.4 -4.8
07:45 1015 29.97 844 24.92 -17.9 -0.2 80 -20.6 -5.1
07:50 1015 29.97 844 24.92 -18 -0.3 78 -21 -5.7
07:55 1015 29.97 844 24.92 -18.1 -0.5 77 -21.2 -6.1
08:00 1014 29.94 843 24.89 -18.1 -0.6 75 -21.6 -6.8
08:05 1014 29.94 843 24.89 -18.1 -0.7 71 -22.2 -7.9
08:10 1014 29.94 843 24.89 -18 -0.4 70 -22.2 -7.9
08:15 1014 29.94 843 24.89 -17.9 -0.2 70 -22.1 -7.8
08:20 1014 29.94 844 24.92 -17.7 0.2 68 -22.2 -8
08:25 1014 29.94 843 24.89 -17.4 0.6 68 -22.1 -7.8
08:30 1014 29.94 844 24.92 -17.2 1.1 67 -21.9 -7.4
08:35 1015 29.97 844 24.92 -17.1 1.3 67 -21.8 -7.2
08:40 1015 29.97 844 24.92 -17.1 1.2 68 -21.7 -7.1
08:45 1015 29.97 844 24.92 -17.3 0.9 70 -21.5 -6.8
08:50 1015 29.97 844 24.92 -17.3 0.9 70 -21.6 -6.8
08:55 1015 29.97 844 24.92 -17.2 1.1 69 -21.6 -6.9
09:00 1015 29.97 844 24.92 -17.1 1.2 69 -21.5 -6.7
09:05 1015 29.97 844 24.92 -17.1 1.2 70 -21.4 -6.5
09:10 1015 29.97 845 24.95 -17.2 1 73 -21 -5.8
09:15 1016 30 845 24.95 -17.3 0.9 76 -20.6 -5.1
09:20 1016 30 845 24.95 -17.4 0.7 79 -20.3 -4.5
09:25 1016 30 845 24.95 -17.6 0.4 81 -20 -4.1
09:30 1016 30 845 24.95 -17.5 0.6 82 -19.8 -3.6
09:35 1016 30 845 24.95 -17.5 0.5 83 -19.7 -3.5
09:40 1016 30 845 24.95 -17.5 0.5 83 -19.7 -3.5
09:45 1016 30 845 24.95 -17.6 0.3 84 -19.7 -3.5
09:50 1016 30 846 24.98 -17.4 0.6 83 -19.7 -3.4
09:55 1016 30 846 24.98 -17.4 0.8 82 -19.7 -3.4
10:00 1017 30.03 846 24.98 -17.2 1 83 -19.4 -3
10:05 1017 30.03 846 24.98 -17 1.4 82 -19.4 -3
10:10 1017 30.03 846 24.98 -17 1.3 82 -19.5 -3.1
10:15 1017 30.03 846 24.98 -16.7 1.9 80 -19.3 -2.8
10:20 1017 30.03 846 24.98 -16.6 2.2 80 -19.2 -2.6
10:25 1017 30.03 846 24.98 -16.5 2.4 80 -19.2 -2.6
10:30 1017 30.03 846 24.98 -16.4 2.5 79 -19.2 -2.5
10:35 1017 30.03 846 24.98 -16.3 2.8 79 -19.2 -2.5
10:40 1017 30.03 846 24.98 -16.2 2.9 79 -19.1 -2.4
10:45 1017 30.03 847 25.01 -16.5 2.3 80 -19.1 -2.4
10:50 1017 30.03 846 24.98 -16.7 2 79 -19.5 -3
10:55 1017 30.03 846 24.98 -17.4 0.8 83 -19.5 -3.2
11:00 1017 30.03 847 25.01 -17.6 0.3 84 -19.6 -3.4
11:05 1017 30.03 847 25.01 -17.4 0.7 83 -19.6 -3.4
11:10 1017 30.03 847 25.01 -17.5 0.6 84 -19.6 -3.3
11:15 1017 30.03 847 25.01 -17.2 1 82 -19.6 -3.3
11:20 1017 30.03 847 25.01 -17.3 0.9 82 -19.6 -3.3
11:25 1017 30.03 847 25.01 -17 1.4 81 -19.5 -3.1
11:30 1017 30.03 847 25.01 -16.4 2.5 80 -19.2 -2.5
11:35 1017 30.03 847 25.01 -15.9 3.4 76 -19.1 -2.5
11:40 1017 30.03 847 25.01 -15.6 4 76 -18.9 -2.1
11:45 1017 30.03 847 25.01 -15.5 4 76 -18.8 -1.9
11:50 1017 30.03 847 25.01 -15.3 4.5 74 -18.9 -2.1
11:55 1017 30.03 847 25.01 -15.3 4.5 72 -19.3 -2.7
12:00 1017 30.03 847 25.01 -15.6 3.9 72 -19.6 -3.2
12:05 1017 30.03 847 25.01 -15.4 4.2 73 -19.3 -2.8
12:10 1017 30.03 847 25.01 -15.2 4.6 69 -19.7 -3.5
12:15 1017 30.03 846 24.98 -15.4 4.2 70 -19.8 -3.6
12:20 1017 30.03 846 24.98 -15.2 4.7 67 -19.9 -3.8
12:25 1017 30.03 846 24.98 -15.2 4.7 67 -20 -3.9
12:30 1017 30.03 846 24.98 -15.1 4.9 67 -19.9 -3.7
12:35 1017 30.03 846 24.98 -14.7 5.5 64 -20.1 -4.3
12:40 1017 30.03 846 24.98 -14.6 5.6 64 -20.1 -4.2
12:45 1017 30.03 846 24.98 -14.4 6.1 64 -19.8 -3.6
12:50 1017 30.03 846 24.98 -14.2 6.5 63 -19.7 -3.4
12:55 1017 30.03 846 24.98 -14 6.9 64 -19.4 -3
13:00 1017 30.03 846 24.98 -13.7 7.4 63 -19.4 -2.8
13:05 1017 30.03 846 24.98 -13.5 7.6 61 -19.5 -3.1
13:10 1017 30.03 846 24.98 -13.7 7.4 63 -19.4 -2.8
13:15 1017 30.03 846 24.98 -13.5 7.7 61 -19.5 -3.1
13:20 1017 30.03 846 24.98 -13.6 7.5 69 -18.2 -0.7
13:25 1017 30.03 846 24.98 -13.7 7.4 70 -18.1 -0.5
13:30 1017 30.03 846 24.98 -13 8.6 66 -18.1 -0.5
13:35 1017 30.03 846 24.98 -12.4 9.6 65 -17.6 0.2
13:40 1017 30.03 846 24.98 -12.5 9.5 66 -17.6 0.3
13:45 1017 30.03 846 24.98 -12.6 9.4 67 -17.4 0.7
13:50 1017 30.03 846 24.98 -13.2 8.2 70 -17.6 0.3
13:55 1017 30.03 846 24.98 -13.4 7.8 69 -17.9 -0.3
14:00 1017 30.03 846 24.98 -13 8.6 66 -18.1 -0.7
14:05 1017 30.03 846 24.98 -13.6 7.5 70 -18 -0.4
14:10 1017 30.03 846 24.98 -13.5 7.6 67 -18.5 -1.3
14:15 1017 30.03 846 24.98 -14 6.9 71 -18.2 -0.7
14:20 1016 30 846 24.98 -13.7 7.3 70 -18.1 -0.5
14:25 1016 30 846 24.98 -13.3 8 68 -18.1 -0.5
14:30 1016 30 845 24.95 -13.1 8.4 66 -18.2 -0.7
14:35 1016 30 845 24.95 -13.9 7 71 -18.1 -0.5
14:40 1016 30 845 24.95 -13.6 7.6 69 -18.1 -0.6
14:45 1016 30 845 24.95 -13.3 8.1 69 -17.9 -0.2
14:50 1016 30 845 24.95 -13.4 7.8 69 -18 -0.4
14:55 1016 30 845 24.95 -12.9 8.7 67 -17.9 -0.2
15:00 1016 30 845 24.95 -13.3 8.1 66 -18.3 -0.9
15:05 1016 30 845 24.95 -12.9 8.9 66 -17.9 -0.3
15:10 1016 30 845 24.95 -13 8.6 67 -17.9 -0.3
15:15 1016 30 845 24.95 -13 8.6 69 -17.6 0.4
15:20 1016 30 845 24.95 -12.9 8.7 64 -18.4 -1.1
15:25 1016 30 845 24.95 -13 8.6 65 -18.2 -0.7
15:30 1016 30 845 24.95 -12.7 9.1 64 -18.2 -0.8
15:35 1016 30 845 24.95 -12.1 10.2 62 -17.9 -0.3
15:40 1016 30 845 24.95 -11 12.1 58 -17.7 0.1
15:45 1016 30 845 24.95 -10.8 12.6 58 -17.6 0.3
15:50 1016 30 845 24.95 -10.9 12.3 58 -17.7 0.1
15:55 1016 30 845 24.95 -10.6 12.9 57 -17.6 0.3
16:00 1016 30 845 24.95 -11.3 11.6 60 -17.6 0.3
16:05 1016 30 845 24.95 -11.8 10.8 61 -17.9 -0.2
16:10 1016 30 845 24.95 -11.9 10.6 61 -17.9 -0.2
16:15 1016 30 845 24.95 -11.9 10.6 63 -17.6 0.4
16:20 1016 30 845 24.95 -11.9 10.6 62 -17.7 0.2
16:25 1016 30 845 24.95 -12.1 10.1 63 -17.8 0
16:30 1016 30 845 24.95 -12.6 9.3 63 -18.3 -1
16:35 1016 30 845 24.95 -13.3 8.1 68 -18 -0.4
16:40 1016 30 845 24.95 -13.2 8.2 67 -18 -0.5
16:45 1016 30 845 24.95 -12.6 9.3 67 -17.6 0.3
16:50 1016 30 845 24.95 -12.6 9.3 64 -18.1 -0.5
16:55 1016 30 845 24.95 -13.1 8.4 66 -18.2 -0.7
17:00 1016 30 845 24.95 -13.4 7.9 68 -18.1 -0.5
17:05 1016 30 845 24.95 -13.1 8.5 67 -18 -0.3
17:10 1016 30 845 24.95 -13 8.6 66 -18.1 -0.5
17:15 1016 30 845 24.95 -13.5 7.7 69 -18 -0.4
17:20 1016 30 845 24.95 -13.3 8.2 67 -18.2 -0.7
17:25 1016 30 845 24.95 -13.1 8.5 68 -17.9 -0.2
17:30 1016 30 845 24.95 -12.9 8.7 66 -17.9 -0.3
17:35 1016 30 845 24.95 -12.9 8.9 66 -17.9 -0.3
17:40 1016 30 846 24.98 -13.2 8.3 68 -17.9 -0.2
17:45 1016 30 846 24.98 -13.6 7.5 70 -18.1 -0.5
17:50 1016 30 846 24.98 -13.5 7.8 68 -18.1 -0.6
17:55 1016 30 846 24.98 -13.7 7.4 69 -18.1 -0.6
18:00 1016 30 846 24.98 -14 6.8 70 -18.3 -0.9
18:05 1016 30 846 24.98 -14.3 6.3 72 -18.2 -0.8
18:10 1016 30 846 24.98 -14.3 6.3 71 -18.4 -1.1
18:15 1016 30 846 24.98 -14.4 6.1 73 -18.2 -0.8
18:20 1016 30 846 24.98 -14.2 6.4 72 -18.3 -0.9
18:25 1016 30 846 24.98 -14.1 6.7 69 -18.5 -1.3
18:30 1016 30 845 24.95 -14.3 6.3 72 -18.3 -0.9
18:35 1016 30 845 24.95 -14.2 6.5 72 -18.2 -0.7
18:40 1016 30 845 24.95 -14.3 6.4 73 -18 -0.4
18:45 1016 30 845 24.95 -14.4 6.1 73 -18.2 -0.8
18:50 1016 30 845 24.95 -14.5 6 72 -18.4 -1.2
18:55 1016 30 845 24.95 -14.5 6 73 -18.2 -0.8
19:00 1016 30 845 24.95 -14.2 6.5 71 -18.3 -1
19:05 1016 30 845 24.95 -14.3 6.3 71 -18.5 -1.3
19:10 1016 30 845 24.95 -14.4 6.1 72 -18.5 -1.2
19:15 1016 30 845 24.95 -14.5 6 72 -18.5 -1.3
19:20 1016 30 845 24.95 -14.4 6.1 73 -18.3 -1
19:25 1016 30 846 24.98 -14.2 6.5 72 -18.1 -0.6
19:30 1016 30 845 24.95 -14 6.9 71 -18.2 -0.7
19:35 1016 30 845 24.95 -14.1 6.7 71 -18.3 -0.9
19:40 1016 30 845 24.95 -14.1 6.6 71 -18.3 -0.9
19:45 1016 30 845 24.95 -14.2 6.4 73 -18 -0.5
19:50 1016 30 845 24.95 -14.1 6.6 72 -18.1 -0.6
19:55 1016 30 845 24.95 -14.1 6.6 73 -18 -0.4
20:00 1016 30 845 24.95 -14.1 6.6 73 -18 -0.3
20:05 1016 30 845 24.95 -14 6.7 73 -17.9 -0.2
20:10 1016 30 845 24.95 -13.9 6.9 73 -17.8 -0.1
20:15 1016 30 845 24.95 -14 6.8 74 -17.7 0.2
20:20 1016 30 845 24.95 -14 6.9 73 -17.7 0.1
20:25 1016 30 845 24.95 -14.1 6.7 74 -17.7 0.1
20:30 1016 30 845 24.95 -14.1 6.7 73 -17.9 -0.2
20:35 1016 30 845 24.95 -14 6.7 73 -17.9 -0.1
20:40 1016 30 845 24.95 -14 6.7 73 -17.8 -0.1
20:45 1016 30 845 24.95 -14 6.9 74 -17.7 0.2
20:50 1016 30 845 24.95 -14.1 6.7 74 -17.8 -0.1
20:55 1016 30 845 24.95 -14.2 6.4 75 -17.8 -0
21:00 1016 30 845 24.95 -14.1 6.7 74 -17.7 0.2
21:05 1016 30 845 24.95 -14 6.7 75 -17.5 0.4
21:10 1016 30 845 24.95 -14 6.8 75 -17.6 0.4
21:15 1016 30 845 24.95 -13.8 7.1 74 -17.5 0.6
21:20 1016 30 845 24.95 -13.7 7.3 74 -17.4 0.7
21:25 1016 30 845 24.95 -14 6.9 74 -17.6 0.3
21:30 1016 30 845 24.95 -14.1 6.6 74 -17.8 0
21:35 1016 30 845 24.95 -14.1 6.7 75 -17.6 0.3
21:40 1016 30 845 24.95 -14 6.8 76 -17.4 0.7
21:45 1016 30 845 24.95 -14.1 6.7 77 -17.3 0.8
21:50 1016 30 845 24.95 -14.1 6.7 75 -17.6 0.4
21:55 1016 30 845 24.95 -14.1 6.6 76 -17.5 0.5
22:00 1016 30 845 24.95 -14 6.7 76 -17.4 0.7
22:05 1016 30 845 24.95 -13.9 7 76 -17.3 0.9
22:10 1016 30 845 24.95 -13.8 7.2 76 -17.2 1
22:15 1016 30 845 24.95 -13.8 7.2 76 -17.2 1.1
22:20 1016 30 845 24.95 -13.7 7.4 73 -17.5 0.5
22:25 1016 30 845 24.95 -13.8 7.2 74 -17.4 0.7
22:30 1016 30 845 24.95 -13.7 7.4 72 -17.7 0.1
22:35 1016 30 845 24.95 -13.8 7.2 73 -17.6 0.4
22:40 1016 30 845 24.95 -13.7 7.3 73 -17.5 0.4
22:45 1016 30 845 24.95 -13.7 7.4 73 -17.6 0.4
22:50 1016 30 846 24.98 -13.7 7.4 72 -17.6 0.3
22:55 1016 30 846 24.98 -13.7 7.4 72 -17.6 0.3
23:00 1016 30 845 24.95 -13.7 7.3 72 -17.7 0.2
23:05 1016 30 845 24.95 -13.9 7 74 -17.6 0.3
23:10 1016 30 845 24.95 -13.9 6.9 75 -17.5 0.5
23:15 1016 30 845 24.95 -13.9 7 73 -17.7 0.2
23:20 1016 30 845 24.95 -14 6.8 75 -17.6 0.4
23:25 1016 30 845 24.95 -14 6.8 75 -17.6 0.4
23:30 1016 30 845 24.95 -14 6.8 75 -17.5 0.4
23:35 1016 30 845 24.95 -14 6.8 75 -17.5 0.6
23:40 1016 30 845 24.95 -13.8 7.2 75 -17.3 0.9
23:45 1016 30 845 24.95 -13.6 7.5 74 -17.3 0.8
23:50 1016 30 845 24.95 -13.7 7.4 74 -17.3 0.8
23:55 1016 30 845 24.95 -13.7 7.4 74 -17.3 0.8
24:00 1016 30 845 24.95 -13.8 7.1 76 -17.2 1